Pagina principale
METAR-TAF:

METAR-TAF

Aeroporti :

Perugia, Italia

Aeroporto di Perugia

latitudine: 43-05N, longitudine: 012-30E, altezza: 208 m

Osservazione

Il bollettino è stato emesso 1 ora e 16 minuti fa, alle 10:50 UTC
Vento calmo
Temperature 7°C
Umidità 81%
Pressione 1015 hPa
Visibilità 10 km o più
Poco nuvoloso ad un'altezza di 3000 ft
Nuvoloso ad un'altezza di 4500 ft

METAR: LIRZ 191050Z 00000KT 9999 FEW030 BKN045 07/04 Q1015

Ora: 13:06 (12:06 UTC)

Previsione

Il bollettino è stato emesso 1 ora e 6 minuti fa, alle 11:00 UTC
Previsione valida dal 19 alle 12 UTC al 20 alle 12 UTC
Vento 5 kt da direzioni variabili
Visibilità 10 km o più
Nubi sparse ad un'altezza di 4500 ft

TAF: LIRZ 191100Z 1912/2012 VRB05KT 9999 SCT045

Osservazioni e previsioni meteorologiche di più di 4000 aeroporti (messaggi METAR e TAF).

Le stazioni disponibili sono rappresentate dai dischi gialli e rossi sulla carta.

Puntare il mouse per vedere il nome della stazione.

Clicca sopra per visualizzare le osservazioni e previsioni meteorologiche.

Per cambiare la mappa : fare clic sui pulsanti verdi con una croce nera per ingrandire, il pulsante verde con un trattino per diminuire, o sulla freccia verde per le mappe adiacenti.


METAR-TAF: